createdAt,value
2023-12-09T00:00:32.571Z,6.65
2023-12-09T00:03:00.252Z,8.98
2023-12-09T00:05:27.958Z,11.15
2023-12-09T00:07:55.571Z,10.85
2023-12-09T00:10:23.482Z,13.15
2023-12-09T00:12:51.135Z,10.88
2023-12-09T00:15:18.899Z,11.35
2023-12-09T00:17:46.600Z,10.60
2023-12-09T00:20:14.277Z,10.25
2023-12-09T00:22:43.136Z,8.23
2023-12-09T00:25:11.023Z,9.07
2023-12-09T00:27:39.157Z,8.00
2023-12-09T00:30:08.908Z,6.90
2023-12-09T00:32:36.795Z,8.05
2023-12-09T00:35:04.906Z,10.32
2023-12-09T00:37:32.665Z,12.77
2023-12-09T00:40:00.368Z,11.57
2023-12-09T00:42:28.206Z,9.88
2023-12-09T00:44:56.028Z,10.13
2023-12-09T00:47:23.664Z,11.82
2023-12-09T00:49:51.387Z,11.65
2023-12-09T00:52:19.099Z,11.27
2023-12-09T00:54:46.683Z,12.00
2023-12-09T00:57:14.384Z,10.88
2023-12-09T00:59:42.010Z,10.20
2023-12-09T01:02:09.585Z,10.05
2023-12-09T01:04:37.582Z,9.38
2023-12-09T01:07:05.416Z,9.57
2023-12-09T01:09:33.299Z,8.38
2023-12-09T01:12:02.947Z,9.30
2023-12-09T01:14:30.642Z,8.50
2023-12-09T01:16:58.226Z,9.45
2023-12-09T01:19:25.825Z,7.63
2023-12-09T01:21:53.418Z,8.57
2023-12-09T01:24:21.493Z,8.45
2023-12-09T01:26:49.081Z,7.50
2023-12-09T01:29:16.769Z,8.38
2023-12-09T01:31:44.681Z,8.10
2023-12-09T01:34:12.409Z,8.18
2023-12-09T01:36:40.199Z,8.15
2023-12-09T01:39:07.796Z,6.90
2023-12-09T01:41:35.387Z,8.25
2023-12-09T01:44:03.546Z,8.40
2023-12-09T01:46:32.405Z,8.60
2023-12-09T01:49:00.341Z,9.05
2023-12-09T01:51:28.918Z,8.20
2023-12-09T01:53:56.896Z,9.05
2023-12-09T01:56:24.696Z,9.38
2023-12-09T01:58:52.729Z,11.25
2023-12-09T02:01:20.560Z,12.27
2023-12-09T02:03:51.604Z,14.80
2023-12-09T02:06:19.212Z,11.52
2023-12-09T02:08:47.207Z,8.77
2023-12-09T02:11:41.626Z,8.68
2023-12-09T02:14:17.920Z,10.65
2023-12-09T02:16:52.582Z,11.32
2023-12-09T02:19:21.599Z,9.90
2023-12-09T02:22:06.975Z,10.95
2023-12-09T02:24:34.993Z,8.90
2023-12-09T02:27:20.520Z,8.00
2023-12-09T02:30:29.371Z,10.57
2023-12-09T02:32:58.071Z,11.52
2023-12-09T02:35:29.027Z,10.15
2023-12-09T02:37:58.202Z,9.85
2023-12-09T02:40:28.012Z,10.32
2023-12-09T02:42:56.602Z,9.50
2023-12-09T02:45:24.653Z,9.77
2023-12-09T02:47:52.405Z,7.03
2023-12-09T02:50:20.207Z,8.05
2023-12-09T02:52:47.767Z,8.95
2023-12-09T02:55:15.574Z,8.73
2023-12-09T02:57:43.150Z,8.15
2023-12-09T03:00:11.343Z,8.88
2023-12-09T03:02:40.528Z,10.05
2023-12-09T03:05:08.530Z,8.60
2023-12-09T03:07:36.157Z,7.30
2023-12-09T03:10:04.066Z,8.43
2023-12-09T03:12:32.096Z,7.88
2023-12-09T03:14:59.720Z,8.27
2023-12-09T03:17:27.373Z,10.35
2023-12-09T03:19:54.969Z,8.48
2023-12-09T03:22:22.532Z,8.77
2023-12-09T03:24:50.160Z,9.25
2023-12-09T03:27:17.755Z,9.07
2023-12-09T03:29:45.328Z,8.13
2023-12-09T03:32:12.963Z,9.57
2023-12-09T03:34:40.622Z,9.38
2023-12-09T03:37:08.239Z,8.55
2023-12-09T03:39:36.099Z,9.70
2023-12-09T03:42:03.903Z,9.88
2023-12-09T03:44:31.783Z,10.70
2023-12-09T03:46:59.432Z,8.32
2023-12-09T03:49:27.125Z,9.07
2023-12-09T03:51:54.746Z,9.35
2023-12-09T03:54:22.396Z,7.88
2023-12-09T03:56:50.343Z,8.98
2023-12-09T03:59:17.912Z,9.23
2023-12-09T04:01:49.889Z,11.02
2023-12-09T04:04:18.128Z,10.63
2023-12-09T04:06:45.754Z,9.63
2023-12-09T04:09:13.558Z,8.73
2023-12-09T04:11:41.156Z,10.95
2023-12-09T04:14:08.809Z,9.48
2023-12-09T04:16:36.442Z,9.15
2023-12-09T04:19:04.600Z,8.88
2023-12-09T04:21:33.097Z,10.48
2023-12-09T04:24:00.659Z,11.30
2023-12-09T04:26:28.389Z,12.10
2023-12-09T04:28:55.979Z,13.45
2023-12-09T04:31:23.614Z,14.75
2023-12-09T04:33:51.278Z,11.68
2023-12-09T04:36:18.991Z,13.07
2023-12-09T04:38:46.570Z,12.32
2023-12-09T04:41:14.138Z,14.32
2023-12-09T04:43:41.717Z,11.90
2023-12-09T04:46:12.116Z,11.73
2023-12-09T04:48:39.817Z,11.82
2023-12-09T04:51:07.810Z,11.63
2023-12-09T04:53:37.178Z,11.05
2023-12-09T04:56:07.846Z,12.43
2023-12-09T04:58:36.051Z,12.50
2023-12-09T05:01:03.777Z,12.43
2023-12-09T05:03:32.291Z,11.95
2023-12-09T05:06:01.680Z,13.20
2023-12-09T05:08:29.778Z,12.07
2023-12-09T05:10:57.837Z,10.65
2023-12-09T05:13:25.417Z,11.05
2023-12-09T05:15:53.241Z,10.00
2023-12-09T05:18:20.984Z,10.88
2023-12-09T05:20:48.744Z,10.38
2023-12-09T05:23:16.967Z,10.15
2023-12-09T05:25:45.245Z,9.88
2023-12-09T05:28:12.898Z,10.90
2023-12-09T05:30:43.012Z,9.20
2023-12-09T05:33:11.825Z,9.77
2023-12-09T05:35:39.467Z,9.68
2023-12-09T05:38:07.171Z,10.48
2023-12-09T05:40:36.094Z,11.90
2023-12-09T05:43:04.023Z,10.65
2023-12-09T05:45:31.683Z,9.98
2023-12-09T05:47:59.743Z,13.18
2023-12-09T05:50:28.016Z,10.93
2023-12-09T05:52:56.210Z,9.85
2023-12-09T05:55:24.570Z,10.68
2023-12-09T05:57:52.104Z,10.88
2023-12-09T06:00:19.850Z,10.90
2023-12-09T06:02:47.453Z,12.85
2023-12-09T06:05:15.172Z,11.05
2023-12-09T06:07:42.784Z,12.07
2023-12-09T06:10:11.138Z,11.57
2023-12-09T06:12:42.249Z,12.02
2023-12-09T06:15:10.255Z,12.07
2023-12-09T06:17:38.166Z,13.85
2023-12-09T06:20:08.547Z,12.93
2023-12-09T06:22:36.221Z,13.35
2023-12-09T06:25:04.016Z,16.42
2023-12-09T06:27:32.417Z,13.63
2023-12-09T06:30:00.639Z,14.38
2023-12-09T06:32:28.736Z,13.02
2023-12-09T06:34:56.473Z,11.98
2023-12-09T06:37:24.181Z,12.85
2023-12-09T06:39:51.879Z,12.68
2023-12-09T06:42:19.520Z,13.75
2023-12-09T06:44:47.149Z,14.45
2023-12-09T06:47:14.761Z,16.73
2023-12-09T06:49:42.900Z,18.85
2023-12-09T06:52:10.711Z,18.30
2023-12-09T06:54:38.776Z,16.15
2023-12-09T06:57:06.485Z,16.13
2023-12-09T06:59:34.184Z,16.17
2023-12-09T07:02:01.696Z,13.55
2023-12-09T07:04:29.334Z,11.15
2023-12-09T07:07:03.265Z,12.10
2023-12-09T07:09:30.879Z,11.57
2023-12-09T07:12:02.077Z,11.63
2023-12-09T07:14:31.146Z,11.40
2023-12-09T07:16:58.707Z,10.40
2023-12-09T07:19:26.358Z,10.27
2023-12-09T07:21:54.368Z,12.13
2023-12-09T07:24:21.974Z,12.80
2023-12-09T07:26:49.693Z,14.70
2023-12-09T07:29:17.286Z,13.10
2023-12-09T07:31:44.901Z,15.40
2023-12-09T07:34:18.087Z,15.38
2023-12-09T07:36:45.908Z,20.42
2023-12-09T07:39:15.040Z,21.17
2023-12-09T07:41:44.204Z,22.02
2023-12-09T07:44:11.920Z,23.70
2023-12-09T07:46:39.934Z,19.17
2023-12-09T07:49:07.874Z,21.83
2023-12-09T07:51:36.390Z,21.13
2023-12-09T07:54:04.156Z,26.35
2023-12-09T07:56:32.223Z,23.33
2023-12-09T07:58:59.778Z,14.63
2023-12-09T08:01:28.016Z,12.13
2023-12-09T08:03:55.628Z,14.50
2023-12-09T08:06:23.267Z,15.73
2023-12-09T08:08:52.486Z,14.10
2023-12-09T08:11:20.605Z,12.57
2023-12-09T08:13:48.451Z,14.10
2023-12-09T08:16:16.172Z,11.23
2023-12-09T08:18:44.567Z,12.63
2023-12-09T08:21:12.450Z,12.85
2023-12-09T08:23:40.460Z,12.85
2023-12-09T08:26:08.796Z,13.30
2023-12-09T08:28:36.440Z,13.65
2023-12-09T08:31:05.668Z,12.77
2023-12-09T08:33:33.720Z,12.88
2023-12-09T08:36:01.443Z,13.20
2023-12-09T08:38:29.055Z,12.85
2023-12-09T08:40:56.641Z,13.00
2023-12-09T08:43:24.792Z,13.95
2023-12-09T08:45:52.770Z,15.85
2023-12-09T08:48:20.770Z,14.13
2023-12-09T08:50:48.547Z,12.15
2023-12-09T08:53:16.196Z,13.88
2023-12-09T08:55:43.837Z,14.57
2023-12-09T08:58:11.477Z,11.02
2023-12-09T09:00:39.345Z,16.27
2023-12-09T09:03:08.149Z,15.90
2023-12-09T09:05:36.196Z,12.45
2023-12-09T09:08:04.145Z,20.70
2023-12-09T09:10:31.866Z,15.25
2023-12-09T09:12:59.432Z,13.27
2023-12-09T09:15:28.542Z,11.60
2023-12-09T09:17:56.491Z,10.85
2023-12-09T09:20:24.455Z,11.65
2023-12-09T09:22:52.131Z,12.02
2023-12-09T09:25:19.773Z,10.52
2023-12-09T09:27:50.485Z,14.63
2023-12-09T09:30:23.747Z,14.63
2023-12-09T09:32:51.528Z,15.83
2023-12-09T09:35:19.222Z,11.77
2023-12-09T09:37:46.891Z,11.10
2023-12-09T09:40:15.403Z,15.38
2023-12-09T09:42:56.806Z,14.00
2023-12-09T09:45:30.264Z,13.95
2023-12-09T09:48:07.513Z,12.90
2023-12-09T09:50:43.269Z,14.98
2023-12-09T09:53:13.786Z,13.75
2023-12-09T09:55:44.932Z,10.48
2023-12-09T09:58:14.647Z,11.93
2023-12-09T10:00:42.587Z,13.13
2023-12-09T10:03:10.503Z,9.00
2023-12-09T10:05:38.447Z,15.20
2023-12-09T10:08:06.780Z,14.13
2023-12-09T10:10:35.909Z,11.60
2023-12-09T10:13:04.062Z,10.63
2023-12-09T10:15:33.277Z,15.35
2023-12-09T10:18:05.664Z,13.27
2023-12-09T10:20:36.499Z,12.30
2023-12-09T10:23:04.469Z,17.45
2023-12-09T10:25:32.083Z,13.82
2023-12-09T10:27:59.797Z,18.63
2023-12-09T10:30:28.456Z,13.57
2023-12-09T10:32:56.989Z,13.77
2023-12-09T10:35:24.749Z,12.73
2023-12-09T10:37:52.589Z,11.00
2023-12-09T10:40:22.862Z,11.35
2023-12-09T10:42:52.016Z,12.80
2023-12-09T10:45:19.853Z,11.98
2023-12-09T10:47:48.326Z,13.38
2023-12-09T10:50:16.075Z,13.20
2023-12-09T10:52:44.175Z,13.43
2023-12-09T10:55:11.808Z,16.55
2023-12-09T10:57:42.781Z,19.73
2023-12-09T11:00:12.458Z,22.90
2023-12-09T11:02:41.888Z,19.13
2023-12-09T11:05:13.125Z,18.23
2023-12-09T11:07:41.663Z,20.13
2023-12-09T11:10:11.849Z,16.58
2023-12-09T11:12:39.675Z,16.95
2023-12-09T11:15:19.739Z,13.90
2023-12-09T11:17:54.469Z,11.60
2023-12-09T11:20:23.430Z,13.52
2023-12-09T11:22:52.680Z,14.80
2023-12-09T11:25:21.660Z,14.85
2023-12-09T11:27:54.251Z,15.95
2023-12-09T11:30:38.125Z,12.63
2023-12-09T11:33:06.347Z,11.05
2023-12-09T11:35:36.302Z,11.70
2023-12-09T11:38:06.721Z,12.55
2023-12-09T11:40:34.848Z,10.35
2023-12-09T11:43:09.929Z,10.25
2023-12-09T11:45:40.752Z,12.35
2023-12-09T11:48:10.196Z,13.55
2023-12-09T11:50:40.706Z,12.57
2023-12-09T11:53:08.459Z,11.57
2023-12-09T11:55:36.387Z,14.18
2023-12-09T11:58:04.973Z,14.98
2023-12-09T12:00:32.755Z,15.70
2023-12-09T12:03:00.949Z,18.75
2023-12-09T12:05:28.629Z,15.57
2023-12-09T12:07:56.272Z,18.15
2023-12-09T12:10:23.959Z,15.80
2023-12-09T12:12:52.036Z,14.95
2023-12-09T12:15:20.153Z,13.48
2023-12-09T12:17:49.600Z,14.77
2023-12-09T12:20:17.394Z,13.93
2023-12-09T12:22:45.620Z,14.38
2023-12-09T12:25:13.305Z,13.00
2023-12-09T12:27:48.347Z,13.27
2023-12-09T12:30:16.462Z,12.07
2023-12-09T12:32:44.973Z,14.02
2023-12-09T12:35:13.024Z,14.02
2023-12-09T12:37:41.756Z,12.00
2023-12-09T12:40:10.118Z,13.10
2023-12-09T12:42:37.858Z,13.32
2023-12-09T12:45:20.739Z,13.50
2023-12-09T12:50:20.176Z,11.45
2023-12-09T12:52:47.886Z,14.57
2023-12-09T12:55:15.543Z,14.85
2023-12-09T12:57:45.067Z,13.48
2023-12-09T13:00:16.002Z,12.88
2023-12-09T13:02:44.283Z,12.85
2023-12-09T13:05:12.122Z,12.70
2023-12-09T13:07:44.457Z,15.73
2023-12-09T13:10:12.897Z,11.45
2023-12-09T13:12:40.945Z,12.80
2023-12-09T13:15:10.046Z,14.32
2023-12-09T13:17:39.030Z,12.52
2023-12-09T13:20:10.470Z,10.48
2023-12-09T13:22:38.666Z,12.73
2023-12-09T13:25:07.073Z,11.35
2023-12-09T13:27:34.967Z,11.20
2023-12-09T13:30:05.984Z,11.13
2023-12-09T13:32:35.353Z,11.13
2023-12-09T13:35:04.626Z,11.93
2023-12-09T13:37:32.380Z,11.85
2023-12-09T13:40:00.279Z,11.88
2023-12-09T13:42:29.317Z,10.27
2023-12-09T13:44:57.299Z,10.70
2023-12-09T13:47:25.119Z,8.23
2023-12-09T13:49:52.845Z,9.77
2023-12-09T13:52:20.680Z,11.55
2023-12-09T13:54:49.809Z,12.30
2023-12-09T13:57:17.599Z,11.82
2023-12-09T13:59:45.366Z,11.50
2023-12-09T14:02:13.128Z,13.60
2023-12-09T14:04:41.025Z,13.18
2023-12-09T14:07:08.807Z,12.93
2023-12-09T14:09:36.585Z,10.60
2023-12-09T14:12:06.475Z,11.02
2023-12-09T14:14:34.297Z,8.77
2023-12-09T14:17:01.983Z,9.05
2023-12-09T14:19:30.913Z,8.43
2023-12-09T14:21:58.711Z,12.18
2023-12-09T14:24:26.409Z,12.52
2023-12-09T14:26:55.382Z,14.25
2023-12-09T14:29:23.161Z,14.80
2023-12-09T14:31:51.034Z,14.65
2023-12-09T14:34:18.758Z,15.90
2023-12-09T14:36:46.568Z,17.27
2023-12-09T14:39:16.279Z,18.20
2023-12-09T14:41:44.020Z,16.45
2023-12-09T14:44:11.847Z,17.13
2023-12-09T14:46:39.864Z,17.73
2023-12-09T14:49:07.884Z,17.15
2023-12-09T14:51:42.864Z,17.08
2023-12-09T14:54:17.491Z,18.33
2023-12-09T14:56:46.767Z,19.80
2023-12-09T14:59:14.859Z,17.70
2023-12-09T15:01:42.759Z,18.63
2023-12-09T15:04:10.647Z,15.30
2023-12-09T15:06:38.651Z,16.33
2023-12-09T15:09:06.347Z,20.65
2023-12-09T15:11:34.056Z,18.27
2023-12-09T15:14:01.675Z,20.13
2023-12-09T15:16:30.055Z,19.08
2023-12-09T15:18:58.063Z,16.10
2023-12-09T15:21:25.832Z,19.45
2023-12-09T15:23:53.538Z,21.10
2023-12-09T15:26:21.302Z,21.73
2023-12-09T15:28:50.508Z,20.77
2023-12-09T15:31:18.400Z,20.20
2023-12-09T15:33:46.334Z,20.45
2023-12-09T15:36:14.348Z,19.38
2023-12-09T15:38:42.623Z,18.45
2023-12-09T15:41:10.348Z,19.70
2023-12-09T15:43:38.400Z,21.52
2023-12-09T15:46:06.265Z,31.92
2023-12-09T15:48:34.234Z,27.00
2023-12-09T15:51:03.293Z,21.73
2023-12-09T15:53:31.126Z,18.90
2023-12-09T15:55:58.784Z,19.50
2023-12-09T15:58:26.465Z,16.27
2023-12-09T16:00:54.315Z,18.15
2023-12-09T16:03:22.308Z,17.92
2023-12-09T16:05:50.168Z,15.25
2023-12-09T16:08:17.860Z,14.35
2023-12-09T16:10:45.811Z,15.70
2023-12-09T16:13:13.491Z,15.20
2023-12-09T16:15:41.374Z,14.23
2023-12-09T16:18:11.321Z,14.68
2023-12-09T16:20:39.242Z,19.88
2023-12-09T16:23:07.186Z,15.50
2023-12-09T16:25:35.684Z,13.52
2023-12-09T16:28:03.978Z,12.85
2023-12-09T16:30:31.736Z,14.02
2023-12-09T16:32:59.563Z,15.55
2023-12-09T16:35:27.468Z,14.05
2023-12-09T16:37:55.444Z,14.32
2023-12-09T16:40:25.402Z,22.88
2023-12-09T16:42:53.071Z,20.92
2023-12-09T16:45:20.858Z,21.25
2023-12-09T16:47:48.816Z,21.10
2023-12-09T16:50:18.169Z,22.15
2023-12-09T16:52:45.858Z,18.45
2023-12-09T16:55:13.504Z,20.23
2023-12-09T16:57:41.204Z,16.92
2023-12-09T17:00:09.808Z,14.73
2023-12-09T17:02:37.601Z,17.23
2023-12-09T17:05:06.111Z,17.55
2023-12-09T17:07:33.823Z,18.23
2023-12-09T17:10:01.692Z,18.67
2023-12-09T17:12:29.877Z,17.17
2023-12-09T17:14:57.943Z,14.30
2023-12-09T17:17:25.781Z,13.20
2023-12-09T17:19:53.502Z,19.42
2023-12-09T17:22:21.242Z,20.13
2023-12-09T17:24:48.933Z,13.13
2023-12-09T17:27:16.811Z,13.35
2023-12-09T17:29:45.155Z,13.18
2023-12-09T17:32:14.063Z,13.18
2023-12-09T17:34:41.896Z,13.55
2023-12-09T17:37:09.758Z,13.18
2023-12-09T17:39:37.739Z,11.48
2023-12-09T17:42:06.079Z,11.68
2023-12-09T17:44:35.352Z,13.75
2023-12-09T17:47:03.122Z,13.70
2023-12-09T17:49:30.965Z,14.32
2023-12-09T17:52:01.479Z,13.00
2023-12-09T17:54:29.651Z,13.60
2023-12-09T17:56:57.610Z,12.02
2023-12-09T17:59:25.289Z,12.85
2023-12-09T18:01:52.896Z,12.02
2023-12-09T18:04:20.589Z,13.02
2023-12-09T18:06:48.421Z,14.95
2023-12-09T18:09:16.180Z,13.18
2023-12-09T18:11:44.225Z,13.30
2023-12-09T18:14:12.220Z,12.90
2023-12-09T18:16:39.952Z,13.48
2023-12-09T18:19:07.887Z,15.15
2023-12-09T18:21:36.411Z,13.20
2023-12-09T18:24:05.002Z,13.13
2023-12-09T18:26:33.057Z,12.48
2023-12-09T18:29:01.008Z,12.82
2023-12-09T18:31:29.230Z,14.27
2023-12-09T18:33:57.545Z,15.10
2023-12-09T18:36:25.567Z,14.65
2023-12-09T18:38:53.512Z,16.35
2023-12-09T18:41:21.387Z,15.32
2023-12-09T18:43:50.179Z,19.52
2023-12-09T18:46:18.152Z,18.83
2023-12-09T18:48:45.876Z,15.27
2023-12-09T18:51:13.611Z,14.10
2023-12-09T18:53:41.531Z,17.83
2023-12-09T18:56:10.310Z,15.23
2023-12-09T18:58:38.146Z,18.40
2023-12-09T19:01:10.781Z,15.60
2023-12-09T19:03:39.992Z,12.45
2023-12-09T19:06:10.323Z,13.65
2023-12-09T19:08:39.169Z,12.05
2023-12-09T19:11:07.406Z,14.98
2023-12-09T19:13:35.137Z,15.07
2023-12-09T19:16:03.688Z,15.45
2023-12-09T19:18:31.451Z,17.30
2023-12-09T19:20:59.344Z,15.35
2023-12-09T19:23:27.067Z,15.18
2023-12-09T19:25:54.741Z,14.63
2023-12-09T19:28:22.526Z,16.40
2023-12-09T19:30:50.250Z,20.23
2023-12-09T19:33:18.215Z,16.35
2023-12-09T19:35:45.944Z,16.50
2023-12-09T19:38:13.767Z,14.95
2023-12-09T19:40:41.470Z,14.13
2023-12-09T19:43:09.154Z,15.30
2023-12-09T19:45:36.891Z,14.90
2023-12-09T19:48:04.890Z,14.52
2023-12-09T19:50:32.734Z,13.27
2023-12-09T19:53:02.261Z,14.20
2023-12-09T19:55:30.829Z,13.80
2023-12-09T19:57:58.577Z,15.07
2023-12-09T20:00:26.222Z,15.73
2023-12-09T20:02:54.120Z,16.70
2023-12-09T20:05:23.232Z,16.65
2023-12-09T20:07:50.878Z,15.55
2023-12-09T20:10:18.721Z,14.73
2023-12-09T20:12:46.559Z,18.92
2023-12-09T20:15:14.391Z,17.20
2023-12-09T20:17:42.163Z,13.63
2023-12-09T20:20:10.173Z,16.02
2023-12-09T20:22:37.931Z,17.08
2023-12-09T20:25:06.312Z,19.75
2023-12-09T20:27:34.234Z,18.50
2023-12-09T20:30:03.805Z,17.23
2023-12-09T20:32:33.258Z,12.02
2023-12-09T20:35:01.074Z,15.93
2023-12-09T20:37:28.767Z,14.77
2023-12-09T20:39:58.385Z,12.65
2023-12-09T20:42:26.203Z,14.70
2023-12-09T20:44:54.214Z,12.80
2023-12-09T20:47:22.018Z,13.73
2023-12-09T20:49:49.790Z,14.80
2023-12-09T20:52:17.764Z,12.50
2023-12-09T20:54:48.132Z,15.55
2023-12-09T20:57:16.007Z,14.95
2023-12-09T20:59:44.426Z,13.63
2023-12-09T21:02:12.223Z,16.40
2023-12-09T21:04:47.134Z,23.77
2023-12-09T21:07:14.856Z,17.25
2023-12-09T21:09:42.925Z,20.98
2023-12-09T21:12:10.688Z,17.55
2023-12-09T21:14:39.282Z,15.18
2023-12-09T21:17:07.073Z,15.45
2023-12-09T21:19:36.177Z,14.05
2023-12-09T21:22:04.310Z,14.65
2023-12-09T21:24:32.671Z,15.25
2023-12-09T21:27:00.492Z,19.98
2023-12-09T21:29:28.456Z,15.80
2023-12-09T21:31:56.312Z,17.00
2023-12-09T21:34:24.137Z,18.63
2023-12-09T21:36:51.834Z,16.52
2023-12-09T21:39:19.629Z,18.95
2023-12-09T21:41:48.039Z,16.65
2023-12-09T21:44:15.698Z,15.88
2023-12-09T21:46:43.383Z,17.48
2023-12-09T21:49:11.312Z,15.48
2023-12-09T21:51:40.812Z,16.92
2023-12-09T21:54:08.876Z,18.83
2023-12-09T21:56:36.814Z,16.63
2023-12-09T21:59:04.580Z,17.50
2023-12-09T22:01:32.243Z,16.92
2023-12-09T22:03:59.910Z,18.38
2023-12-09T22:06:27.662Z,16.77
2023-12-09T22:08:55.546Z,14.38
2023-12-09T22:11:23.222Z,15.80
2023-12-09T22:13:50.891Z,11.77
2023-12-09T22:16:21.886Z,10.32
2023-12-09T22:18:50.402Z,13.15
2023-12-09T22:21:18.325Z,10.23
2023-12-09T22:23:46.091Z,9.88
2023-12-09T22:26:14.534Z,9.82
2023-12-09T22:28:42.882Z,10.60
2023-12-09T22:31:11.064Z,11.13
2023-12-09T22:33:41.257Z,12.70
2023-12-09T22:36:10.218Z,11.07
2023-12-09T22:38:38.023Z,8.70
2023-12-09T22:41:06.288Z,8.05
2023-12-09T22:43:34.051Z,9.30
2023-12-09T22:46:01.653Z,9.25
2023-12-09T22:48:29.738Z,10.00
2023-12-09T22:50:57.642Z,10.82
2023-12-09T22:53:25.511Z,10.18
2023-12-09T22:55:53.413Z,8.80
2023-12-09T22:58:39.682Z,10.02
2023-12-09T23:01:07.678Z,9.10
2023-12-09T23:03:36.240Z,8.18
2023-12-09T23:06:04.123Z,8.73
2023-12-09T23:08:31.855Z,10.45
2023-12-09T23:10:59.489Z,9.82
2023-12-09T23:13:27.077Z,10.98
2023-12-09T23:15:54.862Z,9.25
2023-12-09T23:18:22.773Z,9.52
2023-12-09T23:20:50.826Z,9.82
2023-12-09T23:23:18.601Z,9.48
2023-12-09T23:25:46.194Z,10.32
2023-12-09T23:28:13.921Z,11.27
2023-12-09T23:30:41.773Z,10.50
2023-12-09T23:33:09.727Z,11.05
2023-12-09T23:35:37.500Z,10.48
2023-12-09T23:38:05.431Z,10.13
2023-12-09T23:40:33.054Z,11.75
2023-12-09T23:43:00.750Z,10.25
2023-12-09T23:45:28.623Z,10.18
2023-12-09T23:47:56.373Z,10.00
2023-12-09T23:50:24.508Z,10.43
2023-12-09T23:52:52.532Z,11.95
2023-12-09T23:55:20.457Z,10.02
2023-12-09T23:57:48.270Z,10.13
